Time;durP1;ratioP1;P1;durP2;ratioP2;P2;SDS_P1;SDS_P2;PMS_P1;PMS_P2;Temp;Humidity;BMP_temperature;BMP_pressure;BME280_temperature;BME280_humidity;BME280_pressure;Samples;Min_cycle;Max_cycle;Signal;HPM_P1;HPM_P2
2022/04/06 00:01:20;;;;;;;15.20;5.82;;;;;;;;;;5054001;28;20052;-77
2022/04/06 00:03:49;;;;;;;18.60;6.13;;;;;;;;;;5056475;28;20492;-78
2022/04/06 00:06:15;;;;;;;13.40;5.38;;;;;;;;;;5051832;28;20060;-78
2022/04/06 00:08:41;;;;;;;13.27;5.70;;;;;;;;;;5065677;28;20041;-77
2022/04/06 00:11:08;;;;;;;13.82;5.15;;;;;;;;;;5055334;28;20118;-78
2022/04/06 00:13:34;;;;;;;11.98;5.40;;;;;;;;;;5065320;28;20098;-78
2022/04/06 00:16:01;;;;;;;13.88;5.07;;;;;;;;;;5064068;28;20037;-77
2022/04/06 00:18:27;;;;;;;15.50;5.50;;;;;;;;;;5067046;28;20060;-78
2022/04/06 00:20:53;;;;;;;14.63;5.35;;;;;;;;;;5063037;28;20132;-78
2022/04/06 00:23:19;;;;;;;11.95;4.97;;;;;;;;;;5058001;28;20044;-77
2022/04/06 00:25:45;;;;;;;14.85;5.32;;;;;;;;;;5060662;28;20107;-78
2022/04/06 00:28:11;;;;;;;15.48;4.97;;;;;;;;;;5064288;28;20052;-78
2022/04/06 00:30:37;;;;;;;13.63;5.05;;;;;;;;;;5067364;28;20048;-78
2022/04/06 00:33:03;;;;;;;12.07;5.10;;;;;;;;;;5067046;28;20490;-78
2022/04/06 00:35:29;;;;;;;10.10;4.90;;;;;;;;;;5068591;28;20094;-77
2022/04/06 00:37:56;;;;;;;14.95;4.93;;;;;;;;;;5060234;28;20037;-77
2022/04/06 00:40:23;;;;;;;19.88;4.75;;;;;;;;;;5068044;28;20049;-77
2022/04/06 00:42:49;;;;;;;17.88;5.40;;;;;;;;;;5062428;28;20040;-78
2022/04/06 00:45:15;;;;;;;15.60;4.78;;;;;;;;;;5090833;28;20063;-78
2022/04/06 00:47:42;;;;;;;12.05;4.75;;;;;;;;;;5063270;28;20124;-79
2022/04/06 00:50:08;;;;;;;17.80;4.15;;;;;;;;;;5061444;28;20044;-78
2022/04/06 00:52:35;;;;;;;10.95;4.97;;;;;;;;;;5059764;28;20060;-78
2022/04/06 00:55:01;;;;;;;13.77;4.50;;;;;;;;;;5061822;28;20067;-78
2022/04/06 00:57:27;;;;;;;12.73;4.80;;;;;;;;;;5066101;28;20041;-78
2022/04/06 00:59:53;;;;;;;11.65;4.35;;;;;;;;;;5064410;28;20044;-78
2022/04/06 01:02:19;;;;;;;14.93;4.90;;;;;;;;;;5062733;28;20051;-78
2022/04/06 01:04:45;;;;;;;9.55;4.68;;;;;;;;;;5060034;28;20045;-78
2022/04/06 01:07:12;;;;;;;17.25;4.35;;;;;;;;;;5058727;28;20112;-78
2022/04/06 01:09:38;;;;;;;14.82;4.50;;;;;;;;;;5065667;28;20109;-78
2022/04/06 01:12:04;;;;;;;17.80;4.60;;;;;;;;;;5069388;28;20522;-78
2022/04/06 01:14:31;;;;;;;15.82;4.60;;;;;;;;;;5057621;28;20071;-78
2022/04/06 01:17:01;;;;;;;16.65;4.18;;;;;;;;;;5062768;28;20119;-78
2022/04/06 01:19:31;;;;;;;13.70;4.70;;;;;;;;;;5065073;28;20055;-78
2022/04/06 01:21:57;;;;;;;14.40;4.43;;;;;;;;;;5066126;28;20765;-78
2022/04/06 01:24:23;;;;;;;11.35;3.78;;;;;;;;;;5056487;28;20488;-77
2022/04/06 01:26:49;;;;;;;10.85;4.85;;;;;;;;;;5059695;28;20079;-77
2022/04/06 01:29:15;;;;;;;15.77;3.70;;;;;;;;;;5062372;28;20092;-78
2022/04/06 01:31:41;;;;;;;16.83;3.95;;;;;;;;;;5064632;28;20040;-78
2022/04/06 01:34:07;;;;;;;13.13;4.00;;;;;;;;;;5060463;28;20590;-78
2022/04/06 01:36:33;;;;;;;12.50;4.00;;;;;;;;;;5069536;28;20044;-78
2022/04/06 01:38:59;;;;;;;13.25;3.50;;;;;;;;;;5060721;28;20169;-78
2022/04/06 01:41:30;;;;;;;15.27;4.10;;;;;;;;;;5053997;28;20136;-78
2022/04/06 01:43:56;;;;;;;11.95;3.28;;;;;;;;;;5095709;28;20041;-78
2022/04/06 01:46:22;;;;;;;12.20;3.13;;;;;;;;;;5057463;28;20051;-78
2022/04/06 01:54:17;;;;;;;14.32;4.20;;;;;;;;;;5056085;28;20128;-77
2022/04/06 01:56:48;;;;;;;12.27;3.63;;;;;;;;;;5061572;28;20135;-77
2022/04/06 01:59:14;;;;;;;11.65;3.63;;;;;;;;;;5066303;28;20036;-77
2022/04/06 02:01:40;;;;;;;13.95;4.07;;;;;;;;;;5056614;28;20135;-78
2022/04/06 02:04:16;;;;;;;12.02;3.65;;;;;;;;;;5063378;28;20897;-78
2022/04/06 02:06:42;;;;;;;10.07;4.13;;;;;;;;;;5092196;28;20051;-77
2022/04/06 02:09:08;;;;;;;10.70;4.32;;;;;;;;;;5090605;28;20056;-78
2022/04/06 02:11:35;;;;;;;7.95;2.80;;;;;;;;;;5076688;28;21500;-78
2022/04/06 02:14:01;;;;;;;13.43;3.60;;;;;;;;;;5062922;28;20083;-78
2022/04/06 02:16:28;;;;;;;9.45;3.17;;;;;;;;;;5060235;28;20048;-78
2022/04/06 02:18:54;;;;;;;9.50;3.72;;;;;;;;;;5068618;28;20889;-78
2022/04/06 02:21:19;;;;;;;8.25;3.30;;;;;;;;;;5061062;28;20060;-77
2022/04/06 02:23:45;;;;;;;10.43;3.72;;;;;;;;;;5055326;28;20037;-77
2022/04/06 02:26:11;;;;;;;14.93;3.75;;;;;;;;;;5055066;28;20036;-77
2022/04/06 02:28:37;;;;;;;10.27;3.92;;;;;;;;;;5059446;28;20056;-79
2022/04/06 02:31:04;;;;;;;13.77;3.92;;;;;;;;;;5070793;28;20074;-78
2022/04/06 02:33:30;;;;;;;13.90;4.32;;;;;;;;;;5055030;28;20126;-77
2022/04/06 02:35:58;;;;;;;12.95;4.07;;;;;;;;;;5077914;28;20494;-77
2022/04/06 02:38:24;;;;;;;15.27;4.57;;;;;;;;;;5061222;28;20047;-78
2022/04/06 02:40:51;;;;;;;14.60;4.60;;;;;;;;;;5061997;28;20045;-78
2022/04/06 02:43:17;;;;;;;12.43;3.80;;;;;;;;;;5053427;28;20029;-78
2022/04/06 02:45:43;;;;;;;15.52;4.35;;;;;;;;;;5073907;28;20407;-78
2022/04/06 02:48:09;;;;;;;15.73;4.63;;;;;;;;;;5057969;28;20471;-78
2022/04/06 02:50:35;;;;;;;14.55;4.75;;;;;;;;;;5055503;28;20081;-78
2022/04/06 02:53:01;;;;;;;13.82;5.38;;;;;;;;;;5065787;28;20376;-78
2022/04/06 02:55:27;;;;;;;15.15;4.68;;;;;;;;;;5067635;28;20045;-78
2022/04/06 02:57:53;;;;;;;12.35;4.82;;;;;;;;;;5060802;28;20036;-77
2022/04/06 03:00:19;;;;;;;16.98;4.97;;;;;;;;;;5064012;28;20047;-78
2022/04/06 03:02:46;;;;;;;14.40;5.13;;;;;;;;;;5059624;28;20067;-77
2022/04/06 03:05:12;;;;;;;15.35;5.10;;;;;;;;;;5063625;28;20105;-77
2022/04/06 03:07:41;;;;;;;16.67;5.18;;;;;;;;;;5062582;28;20044;-77
2022/04/06 03:10:07;;;;;;;18.70;5.50;;;;;;;;;;5060173;28;20040;-77
2022/04/06 03:12:36;;;;;;;16.70;5.35;;;;;;;;;;5057366;28;20131;-77
2022/04/06 03:15:02;;;;;;;14.90;5.50;;;;;;;;;;5065631;28;20048;-77
2022/04/06 03:17:28;;;;;;;16.05;5.57;;;;;;;;;;5056443;28;20116;-77
2022/04/06 03:19:54;;;;;;;17.48;5.65;;;;;;;;;;5060037;28;20183;-77
2022/04/06 03:22:20;;;;;;;15.05;5.25;;;;;;;;;;5064309;28;20037;-77
2022/04/06 03:24:46;;;;;;;24.25;5.47;;;;;;;;;;5053147;28;20053;-77
2022/04/06 03:27:12;;;;;;;16.25;5.00;;;;;;;;;;5066054;28;20130;-77
2022/04/06 03:29:40;;;;;;;15.88;4.90;;;;;;;;;;5064905;28;20048;-77
2022/04/06 03:32:07;;;;;;;15.93;4.95;;;;;;;;;;5060703;28;20049;-77
2022/04/06 03:34:33;;;;;;;17.02;5.72;;;;;;;;;;5064432;28;20040;-77
2022/04/06 03:36:59;;;;;;;15.65;5.55;;;;;;;;;;5062078;28;20388;-77
2022/04/06 03:39:25;;;;;;;21.33;5.57;;;;;;;;;;5060781;28;20618;-76
2022/04/06 03:41:51;;;;;;;17.17;5.15;;;;;;;;;;5058884;28;20041;-77
2022/04/06 03:44:17;;;;;;;20.60;5.50;;;;;;;;;;5065493;28;20044;-76
2022/04/06 03:46:43;;;;;;;19.00;5.63;;;;;;;;;;5094132;28;20488;-77
2022/04/06 03:49:09;;;;;;;17.73;5.53;;;;;;;;;;5063592;28;20434;-77
2022/04/06 03:51:35;;;;;;;14.73;5.10;;;;;;;;;;5058472;28;20550;-76
2022/04/06 03:54:02;;;;;;;14.20;5.70;;;;;;;;;;5091142;28;20037;-77
2022/04/06 03:56:28;;;;;;;18.75;5.30;;;;;;;;;;5060327;28;20098;-77
2022/04/06 03:58:54;;;;;;;24.13;5.90;;;;;;;;;;5068876;28;20058;-77
2022/04/06 04:01:20;;;;;;;18.10;5.15;;;;;;;;;;5051549;28;20447;-76
2022/04/06 04:03:46;;;;;;;16.27;5.95;;;;;;;;;;5066218;28;20439;-77
2022/04/06 04:06:12;;;;;;;15.55;5.20;;;;;;;;;;5060250;28;20045;-76
2022/04/06 04:08:38;;;;;;;13.00;5.13;;;;;;;;;;5070105;28;20094;-76
2022/04/06 04:11:04;;;;;;;16.92;5.07;;;;;;;;;;5056451;28;20036;-77
2022/04/06 04:13:30;;;;;;;19.33;6.05;;;;;;;;;;5070559;28;20045;-76
2022/04/06 04:15:56;;;;;;;16.73;5.82;;;;;;;;;;5063597;28;20564;-77
2022/04/06 04:18:22;;;;;;;16.00;5.22;;;;;;;;;;5061826;28;20762;-77
2022/04/06 04:20:48;;;;;;;17.92;5.30;;;;;;;;;;5064254;28;20052;-77
2022/04/06 04:23:14;;;;;;;19.08;5.72;;;;;;;;;;5070620;28;20041;-77
2022/04/06 04:25:40;;;;;;;18.48;5.38;;;;;;;;;;5057953;28;20040;-78
2022/04/06 04:28:06;;;;;;;13.68;4.55;;;;;;;;;;5055550;28;20103;-78
2022/04/06 04:30:33;;;;;;;15.32;6.20;;;;;;;;;;5054653;28;20052;-77
2022/04/06 04:32:59;;;;;;;17.58;5.25;;;;;;;;;;5066750;28;20041;-77
2022/04/06 04:35:25;;;;;;;15.90;5.45;;;;;;;;;;5060380;28;20385;-77
2022/04/06 04:37:51;;;;;;;14.10;4.75;;;;;;;;;;5062176;28;20496;-77
2022/04/06 04:40:17;;;;;;;18.42;5.32;;;;;;;;;;5057180;28;20124;-77
2022/04/06 04:42:43;;;;;;;15.50;5.38;;;;;;;;;;5065113;28;20051;-77
2022/04/06 04:45:11;;;;;;;19.52;5.88;;;;;;;;;;5054710;28;20123;-77
2022/04/06 04:47:37;;;;;;;18.10;5.03;;;;;;;;;;5064954;28;20477;-77
2022/04/06 04:50:04;;;;;;;15.82;5.22;;;;;;;;;;5059518;28;20037;-77
2022/04/06 04:52:30;;;;;;;18.65;4.97;;;;;;;;;;5057417;28;20052;-77
2022/04/06 04:54:56;;;;;;;15.77;4.90;;;;;;;;;;5048805;28;20123;-77
2022/04/06 04:57:22;;;;;;;22.95;5.68;;;;;;;;;;5060024;28;20056;-77
2022/04/06 04:59:52;;;;;;;20.30;5.28;;;;;;;;;;5056762;28;20044;-77
2022/04/06 05:02:18;;;;;;;14.82;5.18;;;;;;;;;;5061507;28;20093;-77
2022/04/06 05:04:44;;;;;;;18.10;5.75;;;;;;;;;;5057857;28;20041;-77
2022/04/06 05:07:10;;;;;;;20.50;4.88;;;;;;;;;;5061249;28;20499;-77
2022/04/06 05:09:36;;;;;;;19.17;5.65;;;;;;;;;;5062130;28;20036;-77
2022/04/06 05:12:02;;;;;;;18.05;6.82;;;;;;;;;;5072006;28;20036;-77
2022/04/06 05:14:28;;;;;;;23.10;5.38;;;;;;;;;;5097342;27;20405;-77
2022/04/06 05:16:55;;;;;;;15.32;4.75;;;;;;;;;;5054355;28;20127;-77
2022/04/06 05:19:21;;;;;;;18.02;5.55;;;;;;;;;;5061049;28;20037;-77
2022/04/06 05:21:47;;;;;;;21.23;5.50;;;;;;;;;;5063173;28;20041;-77
2022/04/06 05:24:13;;;;;;;20.33;5.07;;;;;;;;;;5059615;28;20041;-77
2022/04/06 05:26:39;;;;;;;17.33;5.03;;;;;;;;;;5068181;28;20037;-77
2022/04/06 05:29:05;;;;;;;13.57;4.72;;;;;;;;;;5059924;28;20059;-77
2022/04/06 05:31:31;;;;;;;14.55;4.32;;;;;;;;;;5063384;28;20049;-77
2022/04/06 05:33:57;;;;;;;16.75;5.15;;;;;;;;;;5074711;28;20062;-77
2022/04/06 05:36:24;;;;;;;18.67;5.45;;;;;;;;;;5060986;28;20445;-77
2022/04/06 05:38:51;;;;;;;18.80;4.45;;;;;;;;;;5063330;28;20051;-76
2022/04/06 05:41:17;;;;;;;20.60;4.65;;;;;;;;;;5060396;28;20037;-77
2022/04/06 05:43:43;;;;;;;14.23;3.70;;;;;;;;;;5063972;28;20103;-77
2022/04/06 05:46:08;;;;;;;16.77;5.10;;;;;;;;;;5056793;28;20131;-78
2022/04/06 05:48:35;;;;;;;14.10;4.25;;;;;;;;;;5066405;28;20131;-77
2022/04/06 05:51:02;;;;;;;15.50;4.90;;;;;;;;;;5069899;28;20123;-77
2022/04/06 05:53:28;;;;;;;16.92;4.65;;;;;;;;;;5062863;28;20541;-78
2022/04/06 05:55:54;;;;;;;18.65;5.05;;;;;;;;;;5065071;28;20139;-77
2022/04/06 05:58:20;;;;;;;14.88;4.57;;;;;;;;;;5064683;28;20039;-77
2022/04/06 06:00:46;;;;;;;14.38;4.40;;;;;;;;;;5057198;28;20123;-77
2022/04/06 06:03:12;;;;;;;16.70;4.90;;;;;;;;;;5062979;28;20398;-77
2022/04/06 06:05:38;;;;;;;16.13;4.38;;;;;;;;;;5061407;28;20132;-77
2022/04/06 06:08:04;;;;;;;10.50;3.53;;;;;;;;;;5066274;28;20041;-77
2022/04/06 06:10:31;;;;;;;15.52;4.32;;;;;;;;;;5065156;28;20056;-77
2022/04/06 06:12:58;;;;;;;16.65;4.80;;;;;;;;;;5065871;28;20045;-77
2022/04/06 06:15:24;;;;;;;13.55;3.78;;;;;;;;;;5061905;28;20500;-77
2022/04/06 06:17:51;;;;;;;15.15;4.50;;;;;;;;;;5060855;28;20040;-78
2022/04/06 06:20:17;;;;;;;14.80;4.68;;;;;;;;;;5060725;28;20040;-78
2022/04/06 06:22:43;;;;;;;16.58;5.35;;;;;;;;;;5062920;28;20056;-78
2022/04/06 06:25:09;;;;;;;14.52;4.00;;;;;;;;;;5061638;28;20055;-78
2022/04/06 06:27:42;;;;;;;11.50;4.60;;;;;;;;;;5058453;28;20055;-78
2022/04/06 06:30:11;;;;;;;14.07;4.75;;;;;;;;;;5054846;28;20488;-78
2022/04/06 06:32:37;;;;;;;16.27;4.63;;;;;;;;;;5060210;28;20064;-78
2022/04/06 06:35:03;;;;;;;18.50;4.55;;;;;;;;;;5056037;28;20053;-78
2022/04/06 06:37:29;;;;;;;18.20;4.43;;;;;;;;;;5065807;28;20058;-78
2022/04/06 06:39:55;;;;;;;18.15;4.30;;;;;;;;;;5078521;28;20079;-78
2022/04/06 06:42:21;;;;;;;13.52;4.10;;;;;;;;;;5074751;28;20111;-77
2022/04/06 06:44:47;;;;;;;10.00;4.03;;;;;;;;;;5063340;28;20053;-78
2022/04/06 06:47:13;;;;;;;17.08;4.68;;;;;;;;;;5060655;28;20119;-78
2022/04/06 06:49:45;;;;;;;15.80;4.53;;;;;;;;;;5076822;28;20131;-78
2022/04/06 06:52:11;;;;;;;16.25;5.53;;;;;;;;;;5068529;28;20052;-78
2022/04/06 06:54:39;;;;;;;16.77;4.13;;;;;;;;;;5067227;28;20077;-78
2022/04/06 06:57:05;;;;;;;18.50;4.68;;;;;;;;;;5073812;28;20768;-78
2022/04/06 06:59:31;;;;;;;16.98;4.50;;;;;;;;;;5081544;28;20055;-77
2022/04/06 07:01:57;;;;;;;18.63;4.70;;;;;;;;;;5066222;28;20037;-77
2022/04/06 07:04:23;;;;;;;17.48;3.72;;;;;;;;;;5062967;28;20036;-77
2022/04/06 07:06:49;;;;;;;17.00;4.65;;;;;;;;;;5064014;28;20044;-77
2022/04/06 07:09:16;;;;;;;18.60;4.95;;;;;;;;;;5070561;28;20500;-77
2022/04/06 07:11:45;;;;;;;13.43;4.20;;;;;;;;;;5077141;28;20080;-77
2022/04/06 07:14:13;;;;;;;13.40;4.03;;;;;;;;;;5058587;28;20041;-77
2022/04/06 07:16:39;;;;;;;14.15;4.50;;;;;;;;;;5072488;28;20510;-77
2022/04/06 07:19:05;;;;;;;20.70;4.82;;;;;;;;;;5066136;28;20082;-77
2022/04/06 07:21:31;;;;;;;12.88;3.83;;;;;;;;;;5069883;28;20082;-77
2022/04/06 07:23:58;;;;;;;16.58;4.22;;;;;;;;;;5054053;28;20474;-77
2022/04/06 07:26:24;;;;;;;14.35;4.20;;;;;;;;;;5064173;28;20053;-77
2022/04/06 07:28:50;;;;;;;17.52;4.25;;;;;;;;;;5071053;28;20373;-78
2022/04/06 07:31:19;;;;;;;21.08;4.07;;;;;;;;;;5068453;28;20138;-78
2022/04/06 07:33:45;;;;;;;18.20;4.40;;;;;;;;;;5049220;28;20055;-78
2022/04/06 07:36:13;;;;;;;14.27;4.68;;;;;;;;;;5048833;28;20045;-78
2022/04/06 07:38:39;;;;;;;20.08;4.38;;;;;;;;;;5054447;28;20150;-77
2022/04/06 07:41:05;;;;;;;14.70;4.18;;;;;;;;;;5075422;28;20052;-78
2022/04/06 07:43:31;;;;;;;15.45;3.97;;;;;;;;;;5068220;28;20048;-78
2022/04/06 07:45:57;;;;;;;16.42;4.65;;;;;;;;;;5070209;28;20036;-77
2022/04/06 07:48:26;;;;;;;15.20;3.55;;;;;;;;;;5066220;28;20041;-78
2022/04/06 07:50:52;;;;;;;15.48;3.90;;;;;;;;;;5063142;28;20040;-77
2022/04/06 07:53:18;;;;;;;16.35;4.57;;;;;;;;;;5070108;28;20048;-77
2022/04/06 07:55:46;;;;;;;14.30;4.50;;;;;;;;;;5064766;28;20036;-79
2022/04/06 07:58:13;;;;;;;18.23;4.68;;;;;;;;;;5059407;28;20097;-78
2022/04/06 08:00:39;;;;;;;15.35;4.10;;;;;;;;;;5059604;28;20543;-78
2022/04/06 08:03:05;;;;;;;14.57;4.15;;;;;;;;;;5058258;28;20044;-78
2022/04/06 08:05:31;;;;;;;12.57;4.00;;;;;;;;;;5065801;28;20040;-77
2022/04/06 08:07:57;;;;;;;13.63;3.63;;;;;;;;;;5068252;28;20395;-77
2022/04/06 08:10:23;;;;;;;11.95;3.42;;;;;;;;;;5069726;28;20068;-78
2022/04/06 08:12:49;;;;;;;14.93;3.80;;;;;;;;;;5061320;28;20094;-78
2022/04/06 08:15:15;;;;;;;12.60;4.22;;;;;;;;;;5054028;28;20045;-78
2022/04/06 08:17:43;;;;;;;15.93;3.92;;;;;;;;;;5066936;28;20465;-78
2022/04/06 08:20:11;;;;;;;11.63;3.60;;;;;;;;;;5053159;28;20407;-78
2022/04/06 08:22:37;;;;;;;11.98;4.32;;;;;;;;;;5067231;28;20044;-80
2022/04/06 08:25:03;;;;;;;14.85;4.38;;;;;;;;;;5057779;28;20037;-81
2022/04/06 08:27:31;;;;;;;13.23;3.47;;;;;;;;;;5048963;28;20041;-79
2022/04/06 08:29:57;;;;;;;16.02;4.47;;;;;;;;;;5089830;28;20095;-79
2022/04/06 08:32:23;;;;;;;16.05;4.53;;;;;;;;;;5057099;28;20088;-79
2022/04/06 08:34:49;;;;;;;10.75;3.10;;;;;;;;;;5062108;28;20041;-79
2022/04/06 08:37:15;;;;;;;16.75;4.75;;;;;;;;;;5056001;28;20096;-80
2022/04/06 08:39:41;;;;;;;10.57;3.70;;;;;;;;;;5059366;28;20035;-79
2022/04/06 08:42:07;;;;;;;13.43;3.55;;;;;;;;;;5056610;28;20132;-79
2022/04/06 08:44:33;;;;;;;14.90;3.95;;;;;;;;;;5056239;28;20183;-75
2022/04/06 08:47:03;;;;;;;9.02;4.05;;;;;;;;;;5075314;28;20044;-79
2022/04/06 08:49:30;;;;;;;13.48;4.15;;;;;;;;;;5061003;28;20489;-80
2022/04/06 08:51:56;;;;;;;13.93;4.35;;;;;;;;;;5068937;28;20496;-79
2022/04/06 08:54:26;;;;;;;18.25;4.25;;;;;;;;;;5063947;28;20040;-79
2022/04/06 08:56:51;;;;;;;8.75;3.33;;;;;;;;;;5076138;28;20126;-79
2022/04/06 08:59:18;;;;;;;12.18;3.97;;;;;;;;;;5082008;28;20189;-79
2022/04/06 09:01:44;;;;;;;13.02;4.18;;;;;;;;;;5060202;28;20048;-78
2022/04/06 09:04:10;;;;;;;16.85;4.40;;;;;;;;;;5070985;28;20052;-79
2022/04/06 09:06:40;;;;;;;14.65;3.78;;;;;;;;;;5063742;28;20044;-79
2022/04/06 09:09:06;;;;;;;13.40;4.35;;;;;;;;;;5075195;28;20079;-80
2022/04/06 09:11:40;;;;;;;15.85;4.05;;;;;;;;;;5068963;28;20570;-79
2022/04/06 09:14:06;;;;;;;15.95;4.22;;;;;;;;;;5059273;28;20037;-80
2022/04/06 09:16:32;;;;;;;11.07;3.80;;;;;;;;;;5064862;28;20045;-80
2022/04/06 09:19:08;;;;;;;13.55;4.22;;;;;;;;;;5059902;28;20048;-80
2022/04/06 09:21:46;;;;;;;17.52;4.93;;;;;;;;;;5093622;28;20044;-80
2022/04/06 09:24:16;;;;;;;14.50;4.78;;;;;;;;;;5054521;28;20040;-80
2022/04/06 09:26:42;;;;;;;10.60;3.78;;;;;;;;;;5062187;28;20037;-81
2022/04/06 09:29:11;;;;;;;12.02;4.30;;;;;;;;;;5053530;28;20053;-80
2022/04/06 09:31:38;;;;;;;11.77;4.50;;;;;;;;;;5058181;28;20119;-80
2022/04/06 09:34:04;;;;;;;12.77;4.40;;;;;;;;;;5058756;28;20743;-80
2022/04/06 09:36:31;;;;;;;13.30;4.93;;;;;;;;;;5058682;28;20143;-79
2022/04/06 09:38:57;;;;;;;11.80;4.63;;;;;;;;;;5057160;28;20235;-79
2022/04/06 09:41:25;;;;;;;12.80;3.90;;;;;;;;;;5064464;28;20635;-79
2022/04/06 09:43:55;;;;;;;14.75;4.53;;;;;;;;;;5069403;28;20052;-80
2022/04/06 09:49:08;;;;;;;15.05;4.15;;;;;;;;;;5070284;28;20496;-80
2022/04/06 09:51:38;;;;;;;14.88;4.78;;;;;;;;;;5055135;28;20041;-81
2022/04/06 09:54:05;;;;;;;16.50;4.85;;;;;;;;;;5055363;28;20045;-80
2022/04/06 09:56:32;;;;;;;12.77;4.05;;;;;;;;;;5091139;28;20497;-80
2022/04/06 09:58:58;;;;;;;14.57;4.40;;;;;;;;;;5056599;28;20139;-80
2022/04/06 10:01:34;;;;;;;16.13;4.78;;;;;;;;;;5057035;28;20048;-80
2022/04/06 10:04:04;;;;;;;15.38;5.13;;;;;;;;;;5069298;28;20061;-80
2022/04/06 10:06:41;;;;;;;14.13;4.80;;;;;;;;;;5091945;28;20045;-80
2022/04/06 10:09:08;;;;;;;11.57;4.15;;;;;;;;;;5069453;28;20047;-80
2022/04/06 10:11:35;;;;;;;16.52;4.57;;;;;;;;;;5074796;28;20063;-82
2022/04/06 10:14:02;;;;;;;22.90;5.38;;;;;;;;;;5072017;28;20035;-80
2022/04/06 10:16:28;;;;;;;19.80;5.40;;;;;;;;;;5068086;28;20056;-80
2022/04/06 10:18:55;;;;;;;16.33;4.80;;;;;;;;;;5068654;28;20090;-80
2022/04/06 10:21:28;;;;;;;19.85;5.63;;;;;;;;;;5072607;28;20132;-80
2022/04/06 10:23:57;;;;;;;16.33;4.30;;;;;;;;;;5068057;28;20045;-80
2022/04/06 10:26:36;;;;;;;15.18;4.63;;;;;;;;;;5075646;28;20054;-81
2022/04/06 10:29:04;;;;;;;17.20;4.60;;;;;;;;;;5071091;28;20093;-81
2022/04/06 10:31:31;;;;;;;13.85;4.13;;;;;;;;;;5051547;28;20489;-79
2022/04/06 10:34:19;;;;;;;18.52;4.85;;;;;;;;;;5069247;28;20041;-80
2022/04/06 10:36:56;;;;;;;17.75;5.00;;;;;;;;;;5060096;28;20040;-80
2022/04/06 10:39:22;;;;;;;15.10;4.55;;;;;;;;;;5079014;28;20050;-79
2022/04/06 10:42:07;;;;;;;13.85;4.90;;;;;;;;;;5059246;28;20128;-79
2022/04/06 10:44:39;;;;;;;14.63;4.88;;;;;;;;;;5069450;28;20045;-79
2022/04/06 10:47:07;;;;;;;19.80;4.40;;;;;;;;;;5057339;28;20052;-80
2022/04/06 10:49:33;;;;;;;18.88;4.97;;;;;;;;;;5055864;28;20057;-78
2022/04/06 10:52:17;;;;;;;14.60;4.50;;;;;;;;;;5057572;28;20145;-77
2022/04/06 10:54:43;;;;;;;;;;;;;;;;;;5062707;28;20047;-79
2022/04/06 10:57:09;;;;;;;14.77;4.60;;;;;;;;;;5057494;28;19925;-80
2022/04/06 10:59:35;;;;;;;15.65;4.93;;;;;;;;;;5050801;28;20110;-79
2022/04/06 11:02:14;;;;;;;19.33;5.40;;;;;;;;;;5069414;28;20045;-80
2022/04/06 11:04:40;;;;;;;17.40;5.43;;;;;;;;;;5054904;28;20399;-79
2022/04/06 11:07:08;;;;;;;16.40;5.60;;;;;;;;;;5064761;28;20052;-79
2022/04/06 11:12:26;;;;;;;14.65;4.95;;;;;;;;;;5056934;28;20070;-80
2022/04/06 11:15:00;;;;;;;17.30;4.70;;;;;;;;;;5051415;28;20048;-79
2022/04/06 11:17:41;;;;;;;17.50;4.97;;;;;;;;;;5054392;28;20048;-82
2022/04/06 11:20:14;;;;;;;17.08;5.00;;;;;;;;;;5066021;28;20102;-80
2022/04/06 11:22:43;;;;;;;16.08;4.72;;;;;;;;;;5067033;28;20118;-79
2022/04/06 11:25:13;;;;;;;18.55;5.70;;;;;;;;;;5068379;28;20056;-80
2022/04/06 11:27:42;;;;;;;16.48;5.22;;;;;;;;;;5070607;28;20048;-80
2022/04/06 11:30:13;;;;;;;18.83;4.93;;;;;;;;;;5062671;28;20056;-79
2022/04/06 11:32:40;;;;;;;18.88;4.55;;;;;;;;;;5053977;28;20468;-79
2022/04/06 11:35:08;;;;;;;18.05;4.88;;;;;;;;;;5056015;28;20163;-80
2022/04/06 11:37:46;;;;;;;15.30;5.10;;;;;;;;;;5054323;28;20386;-80
2022/04/06 11:40:13;;;;;;;16.35;4.57;;;;;;;;;;5066853;28;21128;-80
2022/04/06 11:42:39;;;;;;;19.00;5.45;;;;;;;;;;5059551;28;20043;-79
2022/04/06 11:45:06;;;;;;;16.40;5.00;;;;;;;;;;5061098;28;20067;-80
2022/04/06 11:47:36;;;;;;;17.15;5.20;;;;;;;;;;5094105;28;20076;-79
2022/04/06 11:50:12;;;;;;;22.23;7.18;;;;;;;;;;5069547;28;20044;-79
2022/04/06 11:52:42;;;;;;;20.27;5.38;;;;;;;;;;5054000;28;20072;-80
2022/04/06 11:55:08;;;;;;;20.75;6.05;;;;;;;;;;5053123;28;20051;-80
2022/04/06 11:57:35;;;;;;;18.35;5.75;;;;;;;;;;5061748;28;20395;-81
2022/04/06 12:00:03;;;;;;;15.82;5.40;;;;;;;;;;5052530;28;20048;-79
2022/04/06 12:02:29;;;;;;;17.35;5.35;;;;;;;;;;5088317;28;20418;-80
2022/04/06 12:05:01;;;;;;;14.15;4.25;;;;;;;;;;5079887;28;20045;-80
2022/04/06 12:07:27;;;;;;;17.35;5.22;;;;;;;;;;5092065;28;20053;-79
2022/04/06 12:09:54;;;;;;;21.23;6.20;;;;;;;;;;5085892;28;20843;-79
2022/04/06 12:12:20;;;;;;;19.40;5.68;;;;;;;;;;5051222;28;20140;-79
2022/04/06 12:14:47;;;;;;;19.08;5.35;;;;;;;;;;5064331;28;20055;-78
2022/04/06 12:17:14;;;;;;;17.05;4.95;;;;;;;;;;5058355;28;20037;-79
2022/04/06 12:19:40;;;;;;;16.63;5.32;;;;;;;;;;5062723;28;20040;-78
2022/04/06 12:22:07;;;;;;;16.58;4.93;;;;;;;;;;5099533;28;20135;-79
2022/04/06 12:24:37;;;;;;;15.48;4.95;;;;;;;;;;5056057;28;20144;-79
2022/04/06 12:27:03;;;;;;;21.13;5.15;;;;;;;;;;5081953;28;20364;-79
2022/04/06 12:29:31;;;;;;;17.92;5.47;;;;;;;;;;5069011;28;20048;-79
2022/04/06 12:31:57;;;;;;;16.65;5.28;;;;;;;;;;5058900;28;20044;-78
2022/04/06 12:34:27;;;;;;;18.52;5.20;;;;;;;;;;5081398;28;20074;-79
2022/04/06 12:36:53;;;;;;;16.88;4.88;;;;;;;;;;5071779;28;20051;-78
2022/04/06 12:39:19;;;;;;;14.50;4.75;;;;;;;;;;5073423;28;20044;-78
2022/04/06 12:42:07;;;;;;;23.45;5.20;;;;;;;;;;5073762;28;20047;-78
2022/04/06 12:44:34;;;;;;;18.63;4.88;;;;;;;;;;5064567;28;20055;-78
2022/04/06 12:47:01;;;;;;;22.10;5.38;;;;;;;;;;5078722;28;20052;-79
2022/04/06 12:49:27;;;;;;;20.10;6.03;;;;;;;;;;5065443;28;20051;-80
2022/04/06 12:52:10;;;;;;;18.02;5.00;;;;;;;;;;5060398;28;20103;-77
2022/04/06 12:54:37;;;;;;;18.77;4.93;;;;;;;;;;5078747;28;20063;-78
2022/04/06 12:57:13;;;;;;;16.27;4.68;;;;;;;;;;5074215;28;20039;-77
2022/04/06 12:59:42;;;;;;;12.77;3.90;;;;;;;;;;5055849;28;20110;-78
2022/04/06 13:02:18;;;;;;;13.25;4.60;;;;;;;;;;5082607;28;20042;-79
2022/04/06 13:04:44;;;;;;;10.82;3.85;;;;;;;;;;5059552;28;20048;-79
2022/04/06 13:07:10;;;;;;;13.85;4.43;;;;;;;;;;5085837;28;20047;-80
2022/04/06 13:09:46;;;;;;;13.13;4.30;;;;;;;;;;5068155;28;20039;-80
2022/04/06 13:12:12;;;;;;;14.05;4.57;;;;;;;;;;5096058;28;20045;-79
2022/04/06 13:14:38;;;;;;;16.00;4.47;;;;;;;;;;5060809;28;20365;-79
2022/04/06 13:17:05;;;;;;;14.40;3.90;;;;;;;;;;5062725;28;20048;-80
2022/04/06 13:19:31;;;;;;;18.25;4.60;;;;;;;;;;5065872;28;20159;-80
2022/04/06 13:21:57;;;;;;;13.25;3.92;;;;;;;;;;5093802;28;20048;-78
2022/04/06 13:24:23;;;;;;;11.07;3.70;;;;;;;;;;5063102;28;20051;-79
2022/04/06 13:26:49;;;;;;;14.60;3.85;;;;;;;;;;5081466;28;20495;-79
2022/04/06 13:29:15;;;;;;;15.27;4.63;;;;;;;;;;5075500;28;20056;-79
2022/04/06 13:31:42;;;;;;;10.93;3.67;;;;;;;;;;5082257;28;20533;-80
2022/04/06 13:34:08;;;;;;;14.07;4.05;;;;;;;;;;5070214;28;20101;-79
2022/04/06 13:36:34;;;;;;;11.38;3.83;;;;;;;;;;5062542;28;20036;-80
2022/04/06 13:39:00;;;;;;;9.07;3.17;;;;;;;;;;5058082;28;20053;-79
2022/04/06 13:41:27;;;;;;;11.15;3.42;;;;;;;;;;5064850;28;20092;-79
2022/04/06 13:43:54;;;;;;;11.77;3.78;;;;;;;;;;5079298;28;20047;-79
2022/04/06 13:46:20;;;;;;;10.30;3.70;;;;;;;;;;5067813;28;20040;-78
2022/04/06 13:48:46;;;;;;;8.23;2.95;;;;;;;;;;5059827;28;20070;-79
2022/04/06 13:51:12;;;;;;;8.35;3.08;;;;;;;;;;5071026;28;20116;-79
2022/04/06 13:53:39;;;;;;;9.30;3.10;;;;;;;;;;5085552;28;20051;-79
2022/04/06 13:56:05;;;;;;;10.15;3.22;;;;;;;;;;5081763;28;20126;-79
2022/04/06 13:58:31;;;;;;;9.55;3.13;;;;;;;;;;5062276;28;20041;-80
2022/04/06 14:00:58;;;;;;;12.77;2.63;;;;;;;;;;5052644;28;20051;-81
2022/04/06 14:03:25;;;;;;;10.02;2.97;;;;;;;;;;5050321;28;20472;-80
2022/04/06 14:05:55;;;;;;;8.80;2.95;;;;;;;;;;5048292;28;20127;-80
2022/04/06 14:08:21;;;;;;;5.70;2.95;;;;;;;;;;5049642;28;20107;-78
2022/04/06 14:10:47;;;;;;;12.80;4.10;;;;;;;;;;5051657;28;20045;-79
2022/04/06 14:13:14;;;;;;;10.40;3.30;;;;;;;;;;5048702;28;20046;-80
2022/04/06 14:15:40;;;;;;;14.38;3.65;;;;;;;;;;5048128;28;20037;-79
2022/04/06 14:18:07;;;;;;;12.02;4.30;;;;;;;;;;5051027;28;20129;-79
2022/04/06 14:20:33;;;;;;;11.40;3.67;;;;;;;;;;5049636;28;20511;-79
2022/04/06 14:22:59;;;;;;;11.65;3.83;;;;;;;;;;5050882;28;20444;-80
2022/04/06 14:25:26;;;;;;;9.00;3.33;;;;;;;;;;5053095;28;20052;-79
2022/04/06 14:27:52;;;;;;;12.35;3.92;;;;;;;;;;5053226;28;20053;-79
2022/04/06 14:30:19;;;;;;;15.82;4.07;;;;;;;;;;5052534;28;20052;-80
2022/04/06 14:32:45;;;;;;;11.85;3.97;;;;;;;;;;5056084;28;20052;-79
2022/04/06 14:35:12;;;;;;;15.68;4.40;;;;;;;;;;5049445;28;20185;-78
2022/04/06 14:37:39;;;;;;;16.65;4.22;;;;;;;;;;5050567;28;20048;-79
2022/04/06 14:40:08;;;;;;;9.85;3.45;;;;;;;;;;5054449;28;20033;-79
2022/04/06 14:42:35;;;;;;;10.65;4.15;;;;;;;;;;5050658;28;20060;-79